Pagina principale
METAR-TAF:

METAR-TAF

Aeroporti :

Lugano, Svizzera

Aeroporto di Lugano-Agno

latitudine: 46-00N, longitudine: 008-58E, altezza: 273 m

Osservazione

Il bollettino è stato emesso 13 minuti fa, alle 10:20 UTC
Vento 3 kt da sud/sud-ovest
Temperature 17°C
Umidità 45%
Pressione 1020 hPa
Visibilità 10 km o più
nessuna nube inferiore a 1500 m e nessun cumulonembo

METAR: LSZA 211020Z 20003KT CAVOK 17/05 Q1020 NOSIG

Ora: 12:33 (10:33 UTC)

Previsione

Il bollettino è stato emesso 2 ore e 8 minuti fa, alle 08:25 UTC
Previsione valida dal 21 alle 09 UTC al 21 alle 18 UTC
Vento 3 kt da direzioni variabili
Visibilità 10 km o più
nessuna nube inferiore a 1500 m e nessun cumulonembo

TAF: LSZA 210825Z 2109/2118 VRB03KT CAVOK

Osservazioni e previsioni meteorologiche di più di 4000 aeroporti (messaggi METAR e TAF).

Le stazioni disponibili sono rappresentate dai dischi gialli e rossi sulla carta.

Puntare il mouse per vedere il nome della stazione.

Clicca sopra per visualizzare le osservazioni e previsioni meteorologiche.

Per cambiare la mappa : fare clic sui pulsanti verdi con una croce nera per ingrandire, il pulsante verde con un trattino per diminuire, o sulla freccia verde per le mappe adiacenti.


METAR-TAF: